Time;durP1;ratioP1;P1;durP2;ratioP2;P2;SDS_P1;SDS_P2;PMS_P1;PMS_P2;Temp;Humidity;BMP_temperature;BMP_pressure;BME280_temperature;BME280_humidity;BME280_pressure;Samples;Min_cycle;Max_cycle;Signal;HPM_P1;HPM_P2
2021/06/30 00:01:01;;;;;;;52.80;24.65;;;21.50;99.90;;;;;;5031504;28;20523;-64
2021/06/30 00:03:27;;;;;;;63.42;29.92;;;21.50;99.90;;;;;;5032790;28;20033;-64
2021/06/30 00:05:52;;;;;;;56.58;24.73;;;21.60;99.90;;;;;;5032899;28;20092;-64
2021/06/30 00:08:18;;;;;;;69.60;30.48;;;21.70;99.90;;;;;;5032624;28;20030;-64
2021/06/30 00:10:44;;;;;;;65.60;34.72;;;21.70;99.90;;;;;;5032876;28;20393;-64
2021/06/30 00:13:10;;;;;;;62.88;25.63;;;21.80;99.90;;;;;;5032531;28;20096;-64
2021/06/30 00:15:37;;;;;;;50.85;26.17;;;21.70;99.90;;;;;;5031559;28;20025;-65
2021/06/30 00:18:03;;;;;;;58.63;27.42;;;21.70;99.90;;;;;;5032508;28;20075;-65
2021/06/30 00:20:28;;;;;;;56.10;24.40;;;21.70;99.90;;;;;;5032648;28;20104;-65
2021/06/30 00:22:54;;;;;;;56.58;35.88;;;21.70;99.90;;;;;;5032387;28;20533;-64
2021/06/30 00:25:21;;;;;;;57.38;29.35;;;21.60;99.90;;;;;;5032539;28;20112;-65
2021/06/30 00:27:48;;;;;;;71.72;33.45;;;21.70;99.90;;;;;;5032630;28;20064;-64
2021/06/30 00:30:15;;;;;;;64.68;30.83;;;21.70;99.90;;;;;;5032409;28;20034;-65
2021/06/30 00:32:40;;;;;;;51.95;24.92;;;21.60;99.90;;;;;;5031471;28;20037;-65
2021/06/30 00:35:06;;;;;;;63.22;28.67;;;21.60;99.90;;;;;;5032135;28;20376;-64
2021/06/30 00:37:32;;;;;;;57.03;25.25;;;21.60;99.90;;;;;;5032261;28;20373;-64
2021/06/30 00:39:57;;;;;;;69.50;35.15;;;21.60;99.90;;;;;;5032554;28;20021;-64
2021/06/30 00:42:23;;;;;;;76.57;32.72;;;21.60;99.90;;;;;;5032521;28;20389;-65
2021/06/30 00:44:48;;;;;;;54.28;25.38;;;21.60;99.90;;;;;;5032431;28;20025;-64
2021/06/30 00:47:14;;;;;;;51.42;27.60;;;21.60;99.90;;;;;;5023380;28;20045;-63
2021/06/30 00:49:40;;;;;;;56.33;24.35;;;21.60;99.90;;;;;;5030746;28;20056;-64
2021/06/30 00:52:06;;;;;;;60.88;24.40;;;21.60;99.90;;;;;;5033623;28;20044;-65
2021/06/30 00:54:31;;;;;;;55.97;23.77;;;21.60;99.90;;;;;;5028869;28;20029;-65
2021/06/30 00:56:57;;;;;;;49.97;23.70;;;21.60;99.90;;;;;;5041344;28;20369;-64
2021/06/30 00:59:23;;;;;;;51.50;23.35;;;21.70;99.90;;;;;;5050002;28;20040;-64
2021/06/30 01:01:49;;;;;;;58.13;24.10;;;21.70;99.90;;;;;;5049078;28;20036;-65
2021/06/30 01:04:14;;;;;;;57.55;24.55;;;21.70;99.90;;;;;;5038561;28;20029;-65
2021/06/30 01:06:40;;;;;;;52.67;24.63;;;21.80;99.90;;;;;;5025641;28;20037;-64
2021/06/30 01:09:07;;;;;;;53.05;24.80;;;21.70;99.90;;;;;;5029802;28;20029;-65
2021/06/30 01:11:33;;;;;;;56.25;26.73;;;21.80;99.90;;;;;;5030498;28;20029;-64
2021/06/30 01:13:59;;;;;;;48.55;25.13;;;21.80;99.90;;;;;;5030324;28;20056;-65
2021/06/30 01:16:24;;;;;;;62.53;29.92;;;21.80;99.90;;;;;;5028834;28;20052;-65
2021/06/30 01:18:50;;;;;;;64.13;30.00;;;21.80;99.90;;;;;;5030225;28;20044;-65
2021/06/30 01:21:15;;;;;;;56.70;24.95;;;21.90;99.90;;;;;;5022087;28;20375;-65
2021/06/30 01:23:43;;;;;;;62.95;25.75;;;21.80;99.90;;;;;;5050139;28;20064;-64
2021/06/30 01:26:09;;;;;;;63.58;30.20;;;21.90;99.90;;;;;;5054044;28;20021;-66
2021/06/30 01:28:35;;;;;;;61.40;29.13;;;21.90;99.90;;;;;;5053931;28;20025;-65
2021/06/30 01:31:03;;;;;;;68.20;31.52;;;21.90;99.90;;;;;;5052622;28;20029;-66
2021/06/30 01:33:28;;;;;;;75.47;31.48;;;21.90;99.90;;;;;;5035947;28;20037;-65
2021/06/30 01:35:54;;;;;;;62.70;32.47;;;21.90;99.90;;;;;;5035525;28;20075;-66
2021/06/30 01:38:21;;;;;;;82.55;34.75;;;21.90;99.90;;;;;;5034309;28;20030;-66
2021/06/30 01:40:48;;;;;;;65.65;29.63;;;22.00;99.90;;;;;;5035577;28;20048;-66
2021/06/30 01:43:13;;;;;;;66.60;27.17;;;21.90;99.90;;;;;;5035543;28;20029;-66
2021/06/30 01:45:39;;;;;;;65.60;32.67;;;21.90;99.90;;;;;;5034066;28;20619;-65
2021/06/30 01:48:05;;;;;;;59.17;27.08;;;22.00;99.90;;;;;;5035443;28;20105;-65
2021/06/30 01:50:30;;;;;;;63.22;29.40;;;22.00;99.90;;;;;;5035230;28;20029;-66
2021/06/30 01:52:55;;;;;;;57.63;27.33;;;22.00;99.90;;;;;;5035747;28;20022;-65
2021/06/30 01:55:21;;;;;;;61.33;29.52;;;22.00;99.90;;;;;;5035030;28;20377;-66
2021/06/30 01:57:49;;;;;;;77.63;35.53;;;22.00;99.90;;;;;;5035387;28;20029;-65
2021/06/30 02:00:17;;;;;;;68.40;33.40;;;22.00;99.90;;;;;;5034488;28;20060;-64
2021/06/30 02:02:45;;;;;;;60.50;26.73;;;22.00;99.90;;;;;;5034919;28;20538;-66
2021/06/30 02:05:14;;;;;;;64.10;29.58;;;22.00;99.90;;;;;;5035067;28;20033;-66
2021/06/30 02:07:43;;;;;;;60.75;25.73;;;22.00;99.90;;;;;;5034990;28;20033;-65
2021/06/30 02:10:11;;;;;;;61.28;27.30;;;22.00;99.90;;;;;;5034982;28;20052;-65
2021/06/30 02:12:37;;;;;;;60.08;27.90;;;22.00;99.90;;;;;;5034926;28;20036;-65
2021/06/30 02:15:07;;;;;;;71.57;31.65;;;22.00;99.90;;;;;;5034861;28;20025;-65
2021/06/30 02:17:33;;;;;;;65.47;32.80;;;22.00;99.90;;;;;;5033848;28;20060;-65
2021/06/30 02:19:59;;;;;;;63.17;30.15;;;22.00;99.90;;;;;;5034854;28;20287;-66
2021/06/30 02:22:24;;;;;;;75.63;36.17;;;22.00;99.90;;;;;;5034769;28;20017;-66
2021/06/30 02:24:50;;;;;;;61.25;29.27;;;22.00;99.90;;;;;;5033404;28;20034;-65
2021/06/30 02:27:15;;;;;;;62.47;29.65;;;22.00;99.90;;;;;;5034823;28;20405;-66
2021/06/30 02:29:41;;;;;;;68.78;28.00;;;21.90;99.90;;;;;;5034458;28;20468;-66
2021/06/30 02:32:07;;;;;;;46.03;23.63;;;22.00;99.90;;;;;;5033519;28;20025;-65
2021/06/30 02:34:33;;;;;;;93.25;41.50;;;21.90;99.90;;;;;;5034376;28;20021;-66
2021/06/30 02:36:59;;;;;;;65.47;29.17;;;21.90;99.90;;;;;;5033451;28;20028;-65
2021/06/30 02:39:24;;;;;;;59.50;28.38;;;22.00;99.90;;;;;;5034455;28;20025;-65
2021/06/30 02:41:50;;;;;;;66.75;31.00;;;21.90;99.90;;;;;;5034451;28;20373;-66
2021/06/30 02:44:15;;;;;;;61.33;33.38;;;21.90;99.90;;;;;;5034114;28;20025;-66
2021/06/30 02:46:41;;;;;;;76.18;35.05;;;22.00;99.90;;;;;;5033126;28;20036;-66
2021/06/30 02:49:06;;;;;;;61.25;29.65;;;22.00;99.90;;;;;;5034373;28;20056;-66
2021/06/30 02:51:32;;;;;;;52.85;29.65;;;22.00;99.90;;;;;;5034455;28;20029;-66
2021/06/30 02:54:00;;;;;;;71.57;32.30;;;22.00;99.90;;;;;;5034297;28;20029;-66
2021/06/30 02:56:26;;;;;;;61.38;26.88;;;22.00;99.90;;;;;;5034066;28;20055;-66
2021/06/30 02:58:51;;;;;;;54.38;28.75;;;22.00;99.90;;;;;;5033884;28;20436;-66
2021/06/30 03:01:19;;;;;;;63.20;28.30;;;22.00;99.90;;;;;;5033090;28;20040;-66
2021/06/30 03:03:45;;;;;;;59.97;30.35;;;22.00;99.90;;;;;;5033961;28;20033;-66
2021/06/30 03:06:11;;;;;;;69.28;33.70;;;22.10;99.90;;;;;;5034067;28;20232;-66
2021/06/30 03:08:36;;;;;;;62.50;26.42;;;22.00;99.90;;;;;;5033893;28;20036;-64
2021/06/30 03:11:02;;;;;;;61.47;26.70;;;22.10;99.90;;;;;;5033591;28;20148;-66
2021/06/30 03:13:28;;;;;;;58.88;32.55;;;22.10;99.90;;;;;;5033715;28;20036;-65
2021/06/30 03:15:53;;;;;;;59.80;29.88;;;22.10;99.90;;;;;;5030948;28;20112;-65
2021/06/30 03:18:19;;;;;;;52.58;26.77;;;22.10;99.90;;;;;;5033795;28;20036;-66
2021/06/30 03:20:45;;;;;;;76.95;32.47;;;22.10;99.90;;;;;;5033437;28;20474;-66
2021/06/30 03:23:11;;;;;;;64.97;28.23;;;22.10;99.90;;;;;;5033743;28;20041;-66
2021/06/30 03:25:36;;;;;;;75.53;35.03;;;22.20;99.90;;;;;;5033551;28;20393;-65
2021/06/30 03:28:02;;;;;;;51.83;26.40;;;22.20;99.90;;;;;;5033419;28;20014;-66
2021/06/30 03:30:31;;;;;;;64.20;31.83;;;22.20;99.90;;;;;;5032041;28;20524;-66
2021/06/30 03:32:57;;;;;;;68.18;30.83;;;22.20;99.90;;;;;;5033461;28;20376;-65
2021/06/30 03:35:22;;;;;;;67.18;31.10;;;22.20;99.90;;;;;;5033226;28;20028;-65
2021/06/30 03:37:48;;;;;;;61.42;29.63;;;22.20;99.90;;;;;;5033534;28;20028;-66
2021/06/30 03:40:14;;;;;;;78.25;38.65;;;22.30;99.90;;;;;;5032293;28;20060;-66
2021/06/30 03:42:39;;;;;;;68.25;32.95;;;22.30;99.90;;;;;;5032894;28;20511;-65
2021/06/30 03:45:06;;;;;;;84.72;43.65;;;22.30;99.90;;;;;;5033274;28;20064;-67
2021/06/30 03:47:31;;;;;;;58.70;26.80;;;22.30;99.90;;;;;;5031655;28;20064;-67
2021/06/30 03:49:58;;;;;;;69.55;31.83;;;22.30;99.90;;;;;;5032995;28;20063;-66
2021/06/30 03:52:24;;;;;;;67.45;32.13;;;22.30;99.90;;;;;;5033217;28;20030;-67
2021/06/30 03:54:50;;;;;;;73.78;33.75;;;22.30;99.90;;;;;;5033154;28;20451;-66
2021/06/30 03:57:15;;;;;;;58.50;28.20;;;22.30;99.90;;;;;;5033004;28;20060;-66
2021/06/30 03:59:41;;;;;;;52.20;25.98;;;22.30;99.90;;;;;;5032831;28;20129;-67
2021/06/30 04:02:06;;;;;;;62.97;32.25;;;22.30;99.90;;;;;;5032206;28;20056;-66
2021/06/30 04:04:32;;;;;;;61.15;30.33;;;22.30;99.90;;;;;;5032773;28;20045;-67
2021/06/30 04:06:57;;;;;;;67.57;30.48;;;22.40;99.90;;;;;;5033020;28;20442;-69
2021/06/30 04:09:23;;;;;;;71.78;31.52;;;22.40;99.90;;;;;;5032921;28;20093;-67
2021/06/30 04:11:49;;;;;;;81.28;37.15;;;22.40;99.90;;;;;;5032799;28;20025;-66
2021/06/30 04:14:14;;;;;;;84.22;37.40;;;22.40;99.90;;;;;;5032789;28;20091;-66
2021/06/30 04:16:40;;;;;;;82.63;40.05;;;22.40;99.90;;;;;;5031836;28;20030;-66
2021/06/30 04:19:05;;;;;;;94.55;43.15;;;22.30;99.90;;;;;;5032761;28;20163;-66
2021/06/30 04:21:32;;;;;;;69.22;34.25;;;22.40;99.90;;;;;;5032825;28;20036;-67
2021/06/30 04:23:57;;;;;;;65.95;34.88;;;22.40;99.90;;;;;;5032724;28;20112;-66
2021/06/30 04:26:23;;;;;;;86.47;36.35;;;22.30;99.90;;;;;;5032521;28;20097;-67
2021/06/30 04:28:49;;;;;;;63.70;32.45;;;22.30;99.90;;;;;;5031339;28;20021;-67
2021/06/30 04:31:15;;;;;;;69.68;32.20;;;22.30;99.90;;;;;;5031671;28;20120;-67
2021/06/30 04:33:41;;;;;;;75.70;36.30;;;22.40;99.90;;;;;;5032562;28;20374;-67
2021/06/30 04:36:07;;;;;;;85.70;40.30;;;22.30;99.90;;;;;;5032466;28;20033;-67
2021/06/30 04:38:32;;;;;;;76.88;33.78;;;22.30;99.90;;;;;;5032585;28;20030;-67
2021/06/30 04:40:58;;;;;;;63.75;31.42;;;22.30;99.90;;;;;;5032328;28;20025;-66
2021/06/30 04:43:23;;;;;;;66.43;34.47;;;22.30;99.90;;;;;;5032328;28;20033;-66
2021/06/30 04:45:49;;;;;;;81.07;39.13;;;22.30;99.90;;;;;;5031354;28;20057;-67
2021/06/30 04:48:15;;;;;;;72.35;40.45;;;22.30;99.90;;;;;;5032533;28;20465;-67
2021/06/30 04:50:41;;;;;;;69.03;34.80;;;22.30;99.90;;;;;;5032213;28;20384;-66
2021/06/30 04:53:07;;;;;;;87.70;42.63;;;22.30;99.90;;;;;;5032412;28;20033;-66
2021/06/30 04:55:32;;;;;;;76.80;36.60;;;22.30;99.90;;;;;;5032142;28;20036;-68
2021/06/30 04:57:58;;;;;;;79.82;37.47;;;22.30;99.90;;;;;;5032440;28;20427;-66
2021/06/30 05:00:23;;;;;;;75.13;38.65;;;22.40;99.90;;;;;;5034195;28;20416;-65
2021/06/30 05:02:49;;;;;;;68.00;37.88;;;22.30;99.90;;;;;;5036231;28;20049;-67
2021/06/30 05:05:15;;;;;;;67.93;30.45;;;22.30;99.90;;;;;;5036314;28;20025;-66
2021/06/30 05:07:40;;;;;;;75.63;36.72;;;22.30;99.90;;;;;;5034332;28;20500;-67
2021/06/30 05:10:07;;;;;;;68.22;38.75;;;22.40;99.90;;;;;;5034966;28;20113;-67
2021/06/30 05:12:32;;;;;;;68.40;35.08;;;22.30;99.90;;;;;;5036263;28;20020;-67
2021/06/30 05:14:57;;;;;;;79.15;35.88;;;22.40;99.90;;;;;;5035997;28;20026;-67
2021/06/30 05:17:23;;;;;;;84.03;40.63;;;22.40;99.90;;;;;;5035289;28;20038;-67
2021/06/30 05:19:49;;;;;;;87.20;39.22;;;22.40;99.90;;;;;;5035965;28;20033;-68
2021/06/30 05:22:15;;;;;;;64.00;39.10;;;22.40;99.90;;;;;;5036181;28;20066;-67
2021/06/30 05:24:40;;;;;;;78.75;38.33;;;22.40;99.90;;;;;;5034585;28;20033;-67
2021/06/30 05:27:06;;;;;;;70.32;39.08;;;22.40;99.90;;;;;;5035999;28;20030;-67
2021/06/30 05:29:32;;;;;;;71.35;39.83;;;22.40;99.90;;;;;;5035812;28;20068;-67
2021/06/30 05:31:57;;;;;;;52.95;31.65;;;22.50;99.90;;;;;;5034949;28;20021;-66
2021/06/30 05:34:23;;;;;;;63.58;34.08;;;22.50;99.90;;;;;;5035931;28;20029;-67
2021/06/30 05:36:49;;;;;;;67.50;36.72;;;22.60;99.90;;;;;;5035633;28;20108;-67
2021/06/30 05:39:19;;;;;;;61.03;32.58;;;22.60;99.90;;;;;;5034592;28;20428;-66
2021/06/30 05:41:45;;;;;;;68.43;34.33;;;22.60;99.90;;;;;;5035508;28;20028;-67
2021/06/30 05:44:12;;;;;;;74.53;34.25;;;22.60;99.90;;;;;;5034231;28;20344;-67
2021/06/30 05:46:38;;;;;;;62.15;37.85;;;22.70;99.90;;;;;;5034550;28;20380;-68
2021/06/30 05:49:04;;;;;;;70.75;40.17;;;22.70;99.90;;;;;;5035659;28;20025;-67
2021/06/30 05:51:30;;;;;;;61.65;36.15;;;22.70;99.90;;;;;;5035424;28;20072;-67
2021/06/30 05:53:55;;;;;;;58.80;38.55;;;22.60;99.90;;;;;;5034135;28;20022;-67
2021/06/30 05:56:21;;;;;;;55.55;33.53;;;22.60;99.90;;;;;;5035271;28;20397;-67
2021/06/30 05:58:46;;;;;;;63.13;33.47;;;22.60;99.90;;;;;;5035277;28;20085;-67
2021/06/30 06:01:12;;;;;;;67.68;35.40;;;22.70;99.90;;;;;;5034195;28;20035;-67
2021/06/30 06:03:37;;;;;;;58.45;32.72;;;22.70;99.90;;;;;;5035092;28;20366;-67
2021/06/30 06:06:03;;;;;;;52.83;31.40;;;22.70;99.90;;;;;;5035166;28;20025;-68
2021/06/30 06:08:30;;;;;;;56.38;27.77;;;22.80;99.90;;;;;;5035227;28;20029;-66
2021/06/30 06:10:56;;;;;;;54.30;30.58;;;22.80;99.90;;;;;;5034795;28;20100;-67
2021/06/30 06:13:22;;;;;;;66.25;33.65;;;22.80;99.90;;;;;;5035173;28;20492;-67
2021/06/30 06:15:47;;;;;;;45.72;30.42;;;22.90;99.90;;;;;;5032708;28;20033;-68
2021/06/30 06:18:13;;;;;;;60.83;33.90;;;22.90;99.90;;;;;;5035091;28;20033;-67
2021/06/30 06:20:38;;;;;;;53.83;28.25;;;23.00;99.90;;;;;;5034936;28;20037;-68
2021/06/30 06:23:04;;;;;;;54.88;28.73;;;22.90;99.90;;;;;;5034838;28;20072;-68
2021/06/30 06:25:30;;;;;;;54.58;28.38;;;22.90;99.90;;;;;;5034622;28;20044;-68
2021/06/30 06:27:55;;;;;;;34.22;23.27;;;22.90;99.90;;;;;;5034878;28;20013;-67
2021/06/30 06:30:25;;;;;;;54.00;32.97;;;22.90;99.90;;;;;;5033791;28;20022;-67
2021/06/30 06:32:50;;;;;;;50.78;27.70;;;22.90;99.90;;;;;;5034660;28;20053;-66
2021/06/30 06:35:16;;;;;;;42.80;23.75;;;22.90;99.90;;;;;;5034594;28;20057;-66
2021/06/30 06:37:42;;;;;;;50.47;26.67;;;22.90;99.90;;;;;;5034643;28;20032;-66
2021/06/30 06:40:11;;;;;;;42.97;28.25;;;22.90;99.90;;;;;;5034420;28;20072;-66
2021/06/30 06:42:38;;;;;;;44.25;27.00;;;22.90;99.90;;;;;;5034776;28;20495;-66
2021/06/30 06:45:07;;;;;;;44.03;25.05;;;22.90;99.90;;;;;;5034262;28;20117;-66
2021/06/30 06:47:33;;;;;;;38.67;22.08;;;22.90;99.90;;;;;;5033934;28;20057;-66
2021/06/30 06:49:59;;;;;;;42.40;26.42;;;22.80;99.90;;;;;;5034437;28;20060;-65
2021/06/30 06:52:24;;;;;;;38.65;24.75;;;22.80;99.90;;;;;;5034299;28;20481;-64
2021/06/30 06:54:50;;;;;;;40.92;25.20;;;22.80;99.90;;;;;;5034287;28;20033;-66
2021/06/30 06:57:16;;;;;;;36.15;24.67;;;22.80;99.90;;;;;;5034229;28;20052;-65
2021/06/30 06:59:41;;;;;;;34.45;23.38;;;22.70;99.90;;;;;;5034162;28;20041;-67
2021/06/30 07:02:07;;;;;;;31.15;24.23;;;22.70;99.90;;;;;;5033149;28;20021;-65
2021/06/30 07:04:32;;;;;;;32.65;19.65;;;22.70;99.90;;;;;;5031134;28;20033;-67
2021/06/30 07:06:58;;;;;;;42.58;24.38;;;22.70;99.90;;;;;;5033605;28;20532;-66
2021/06/30 07:09:23;;;;;;;32.88;20.17;;;22.60;99.90;;;;;;5033933;28;20021;-66
2021/06/30 07:11:49;;;;;;;42.25;24.73;;;22.70;99.90;;;;;;5033730;28;20060;-65
2021/06/30 07:14:15;;;;;;;30.05;19.08;;;22.60;99.90;;;;;;5033818;28;20021;-65
2021/06/30 07:16:40;;;;;;;43.10;24.02;;;22.60;99.90;;;;;;5032799;28;20044;-65
2021/06/30 07:19:06;;;;;;;38.38;22.48;;;22.60;99.90;;;;;;5033734;28;20108;-65
2021/06/30 07:21:33;;;;;;;32.25;20.40;;;22.60;99.90;;;;;;5033088;28;20476;-66
2021/06/30 07:24:00;;;;;;;36.50;23.02;;;22.70;99.90;;;;;;5033373;28;20109;-65
2021/06/30 07:26:26;;;;;;;33.75;20.20;;;22.70;99.90;;;;;;5033645;28;20024;-65
2021/06/30 07:28:53;;;;;;;30.08;21.42;;;22.70;99.90;;;;;;5033441;28;20037;-65
2021/06/30 07:31:19;;;;;;;38.67;22.60;;;22.70;99.90;;;;;;5032638;28;20025;-65
2021/06/30 07:33:45;;;;;;;27.05;19.48;;;22.80;99.90;;;;;;5033399;28;20373;-66
2021/06/30 07:36:11;;;;;;;28.85;19.23;;;22.80;99.90;;;;;;5033121;28;20044;-65
2021/06/30 07:38:37;;;;;;;28.83;18.30;;;22.70;99.90;;;;;;5033387;28;20045;-65
2021/06/30 07:41:04;;;;;;;29.85;20.40;;;22.70;99.90;;;;;;5033216;28;20026;-64
2021/06/30 07:43:29;;;;;;;22.73;17.88;;;22.60;99.90;;;;;;5033285;28;20117;-64
2021/06/30 07:45:55;;;;;;;24.77;15.98;;;22.60;99.90;;;;;;5031996;28;20057;-65
2021/06/30 07:48:21;;;;;;;22.55;15.18;;;22.60;99.90;;;;;;5033083;28;20037;-64
2021/06/30 07:50:47;;;;;;;25.77;15.82;;;22.60;99.90;;;;;;5032882;28;20096;-65
2021/06/30 07:53:13;;;;;;;26.58;16.80;;;22.60;99.90;;;;;;5032866;28;20112;-64
2021/06/30 07:55:38;;;;;;;22.08;14.32;;;22.50;99.90;;;;;;5033049;28;20053;-65
2021/06/30 07:58:04;;;;;;;29.60;18.15;;;22.50;99.90;;;;;;5032992;28;20438;-64
2021/06/30 08:00:29;;;;;;;23.23;13.38;;;22.60;99.90;;;;;;5031897;28;20076;-64
2021/06/30 08:02:55;;;;;;;31.92;16.50;;;22.50;99.90;;;;;;5032595;28;20192;-64
2021/06/30 08:05:20;;;;;;;25.98;15.32;;;22.50;99.90;;;;;;5033082;28;20492;-65
2021/06/30 08:07:46;;;;;;;23.05;15.00;;;22.50;99.90;;;;;;5032899;28;20029;-64
2021/06/30 08:10:11;;;;;;;26.45;13.88;;;22.50;99.90;;;;;;5032923;28;20048;-64
2021/06/30 08:12:37;;;;;;;22.50;16.38;;;22.50;99.90;;;;;;5032947;28;20512;-64
2021/06/30 08:15:05;;;;;;;20.25;15.95;;;22.40;99.90;;;;;;5032765;28;20026;-64
2021/06/30 08:17:30;;;;;;;19.05;13.13;;;22.50;99.90;;;;;;5032310;28;20238;-64
2021/06/30 08:19:56;;;;;;;19.13;13.95;;;22.40;99.90;;;;;;5032775;28;20033;-64
2021/06/30 08:22:21;;;;;;;19.58;13.82;;;22.40;99.90;;;;;;5032684;28;20065;-65
2021/06/30 08:24:47;;;;;;;16.27;11.55;;;22.40;99.90;;;;;;5031577;28;20025;-64
2021/06/30 08:27:13;;;;;;;22.30;14.25;;;22.40;99.90;;;;;;5031269;28;20029;-65
2021/06/30 08:29:40;;;;;;;19.48;12.10;;;22.40;99.90;;;;;;5032839;28;20030;-64
2021/06/30 08:32:06;;;;;;;22.17;13.80;;;22.40;99.90;;;;;;5031593;28;20022;-65
2021/06/30 08:34:32;;;;;;;16.38;12.18;;;22.40;99.90;;;;;;5031727;28;20499;-65
2021/06/30 08:37:18;;;;;;;18.70;12.70;;;22.40;99.90;;;;;;5032211;28;20052;-64
2021/06/30 08:39:44;;;;;;;23.17;12.27;;;22.40;99.90;;;;;;5032721;28;20072;-65
2021/06/30 08:42:09;;;;;;;13.55;9.63;;;22.30;99.90;;;;;;5032413;28;20041;-64
2021/06/30 08:44:36;;;;;;;14.73;9.95;;;22.30;99.90;;;;;;5032538;28;20208;-64
2021/06/30 08:47:03;;;;;;;13.57;9.18;;;22.30;99.90;;;;;;5031253;28;20030;-65
2021/06/30 08:49:29;;;;;;;14.38;9.65;;;22.30;99.90;;;;;;5032434;28;20401;-64
2021/06/30 08:51:57;;;;;;;10.57;8.13;;;22.30;99.90;;;;;;5031059;28;20022;-64
2021/06/30 08:54:23;;;;;;;12.13;8.10;;;22.30;99.90;;;;;;5032386;28;20480;-65
2021/06/30 08:56:51;;;;;;;10.80;7.47;;;22.20;99.90;;;;;;5032335;28;20025;-65
2021/06/30 08:59:16;;;;;;;10.48;7.28;;;22.20;99.90;;;;;;5032156;28;20408;-65
2021/06/30 09:01:43;;;;;;;8.68;7.20;;;22.20;99.90;;;;;;5030140;28;20032;-65
2021/06/30 09:04:11;;;;;;;9.73;7.82;;;22.20;99.90;;;;;;5032089;28;20021;-64
2021/06/30 09:06:37;;;;;;;12.93;7.18;;;22.10;99.90;;;;;;5032195;28;20024;-64
2021/06/30 09:09:05;;;;;;;10.25;7.60;;;22.10;99.90;;;;;;5032319;28;20112;-65
2021/06/30 09:11:33;;;;;;;9.52;7.18;;;22.10;99.90;;;;;;5029051;28;20091;-65
2021/06/30 09:14:32;;;;;;;12.73;7.55;;;22.00;99.90;;;;;;5031487;28;20036;-64
2021/06/30 09:17:21;;;;;;;8.98;7.70;;;22.00;99.90;;;;;;5026559;28;20126;-66
2021/06/30 09:19:49;;;;;;;10.77;7.93;;;22.00;99.90;;;;;;5031777;28;20045;-66
2021/06/30 09:22:15;;;;;;;9.95;7.85;;;22.00;99.90;;;;;;5031752;28;20034;-65
2021/06/30 09:24:41;;;;;;;10.98;8.82;;;22.00;99.90;;;;;;5031765;28;20477;-66
2021/06/30 09:27:09;;;;;;;11.02;8.80;;;22.10;99.90;;;;;;5031500;28;20029;-65
2021/06/30 09:29:37;;;;;;;8.30;6.53;;;22.00;99.90;;;;;;5032020;28;20017;-66
2021/06/30 09:32:11;;;;;;;9.88;8.05;;;22.00;99.90;;;;;;5030844;28;20488;-65
2021/06/30 09:34:38;;;;;;;8.32;6.75;;;22.10;99.90;;;;;;5031834;28;20431;-66
2021/06/30 09:37:06;;;;;;;7.68;6.88;;;22.00;99.90;;;;;;5031780;28;20057;-65
2021/06/30 09:39:51;;;;;;;10.15;8.50;;;22.00;99.90;;;;;;5031871;28;20017;-65
2021/06/30 09:42:17;;;;;;;8.60;6.43;;;22.00;99.90;;;;;;5031671;28;20033;-65
2021/06/30 09:44:44;;;;;;;9.13;6.70;;;22.00;99.90;;;;;;5032006;28;20034;-66
2021/06/30 09:47:10;;;;;;;9.55;7.32;;;22.00;99.90;;;;;;5034349;28;20520;-66
2021/06/30 09:49:37;;;;;;;9.40;6.63;;;22.10;99.90;;;;;;5035321;28;20070;-66
2021/06/30 09:52:09;;;;;;;8.90;6.50;;;22.10;99.90;;;;;;5035326;28;20437;-65
2021/06/30 09:54:37;;;;;;;10.40;6.28;;;22.20;99.90;;;;;;5035632;28;20021;-65
2021/06/30 09:57:08;;;;;;;7.88;6.68;;;22.30;99.90;;;;;;5035289;28;20063;-65
2021/06/30 09:59:39;;;;;;;8.82;5.90;;;22.30;99.90;;;;;;5035361;28;20050;-66
2021/06/30 10:02:13;;;;;;;8.43;5.65;;;22.40;99.90;;;;;;5034237;28;20488;-66
2021/06/30 10:04:57;;;;;;;8.73;6.35;;;22.40;99.90;;;;;;5035204;28;20037;-66
2021/06/30 10:07:25;;;;;;;8.10;6.22;;;22.40;99.90;;;;;;5035155;28;20089;-67
2021/06/30 10:09:51;;;;;;;10.32;7.20;;;22.50;99.90;;;;;;5035294;28;20117;-67
2021/06/30 10:12:21;;;;;;;9.98;6.72;;;22.50;99.90;;;;;;5035236;28;20056;-66
2021/06/30 10:14:46;;;;;;;9.18;7.00;;;22.50;99.90;;;;;;5035018;28;20091;-67
2021/06/30 10:17:14;;;;;;;7.50;6.70;;;22.60;99.90;;;;;;5033893;28;20124;-66
2021/06/30 10:19:41;;;;;;;10.27;7.85;;;22.60;99.90;;;;;;5035161;28;20030;-67
2021/06/30 10:22:09;;;;;;;9.35;6.78;;;22.70;99.90;;;;;;5034685;28;20040;-67
2021/06/30 10:24:36;;;;;;;8.23;6.32;;;22.80;99.90;;;;;;5034927;28;20028;-66
2021/06/30 10:27:02;;;;;;;7.93;6.18;;;22.70;99.90;;;;;;5034786;28;20485;-68
2021/06/30 10:29:30;;;;;;;8.23;6.75;;;22.60;99.90;;;;;;5034817;28;20358;-68
2021/06/30 10:31:58;;;;;;;7.63;6.47;;;22.60;99.90;;;;;;5033816;28;20101;-67
2021/06/30 10:34:34;;;;;;;6.45;5.07;;;22.50;99.90;;;;;;5033509;28;20076;-67
2021/06/30 10:37:00;;;;;;;6.35;5.75;;;22.50;99.90;;;;;;5034468;28;20025;-66
2021/06/30 10:39:40;;;;;;;7.80;6.60;;;22.50;99.90;;;;;;5034682;28;20419;-68
2021/06/30 10:42:33;;;;;;;6.18;5.40;;;22.50;99.90;;;;;;5034365;28;20511;-67
2021/06/30 10:45:02;;;;;;;8.30;6.10;;;22.40;99.90;;;;;;5034231;28;20021;-68
2021/06/30 10:47:42;;;;;;;6.90;5.60;;;22.30;99.90;;;;;;5034382;28;20017;-68
2021/06/30 10:50:22;;;;;;;7.15;5.57;;;22.20;99.90;;;;;;5034430;28;20132;-68
2021/06/30 10:53:07;;;;;;;7.43;5.60;;;22.20;99.90;;;;;;5033007;28;20295;-68
2021/06/30 10:55:35;;;;;;;9.07;6.07;;;22.20;99.90;;;;;;5034438;28;20517;-69
2021/06/30 10:58:13;;;;;;;7.82;6.25;;;22.10;99.90;;;;;;5033351;28;20021;-68
2021/06/30 11:01:05;;;;;;;7.72;5.50;;;22.10;99.90;;;;;;5031791;28;20535;-68
2021/06/30 11:03:45;;;;;;;6.72;5.32;;;22.10;99.90;;;;;;5034054;28;20092;-68
2021/06/30 11:06:13;;;;;;;6.50;5.13;;;21.90;99.90;;;;;;5034092;28;20068;-68
2021/06/30 11:09:09;;;;;;;6.03;4.70;;;21.90;99.90;;;;;;5034059;28;20032;-67
2021/06/30 11:11:35;;;;;;;5.30;4.78;;;21.90;99.90;;;;;;5029559;28;20030;-68
2021/06/30 11:14:11;;;;;;;8.38;5.50;;;21.80;99.90;;;;;;5034027;28;20541;-68
2021/06/30 11:16:40;;;;;;;7.90;5.45;;;21.80;99.90;;;;;;5031830;28;20033;-67
2021/06/30 11:19:14;;;;;;;8.50;5.78;;;21.90;99.90;;;;;;5032615;28;20476;-68
2021/06/30 11:21:44;;;;;;;9.90;5.93;;;21.90;99.90;;;;;;5033665;28;20468;-66
2021/06/30 11:27:06;;;;;;;8.57;6.18;;;21.90;99.90;;;;;;5033622;28;20032;-67
2021/06/30 11:30:02;;;;;;;9.18;6.40;;;21.80;99.90;;;;;;5033465;28;20025;-68
2021/06/30 11:32:35;;;;;;;8.45;5.63;;;21.80;99.90;;;;;;5033303;28;20025;-68
2021/06/30 11:35:24;;;;;;;9.07;5.55;;;21.80;99.90;;;;;;5033715;28;20033;-68
2021/06/30 11:38:12;;;;;;;8.73;6.32;;;21.80;99.90;;;;;;5033440;28;20057;-68
2021/06/30 11:40:43;;;;;;;8.70;7.03;;;21.80;99.90;;;;;;5033571;28;20025;-68
2021/06/30 11:43:16;;;;;;;10.77;6.93;;;21.80;99.90;;;;;;5033269;28;20035;-68
2021/06/30 11:45:41;;;;;;;12.20;8.55;;;21.80;99.90;;;;;;5032341;28;20021;-68
2021/06/30 11:48:12;;;;;;;13.60;9.32;;;21.80;99.90;;;;;;5033299;28;20025;-67
2021/06/30 11:50:55;;;;;;;16.23;10.43;;;21.80;99.90;;;;;;5033309;28;20025;-68
2021/06/30 11:53:38;;;;;;;12.80;9.65;;;21.80;99.90;;;;;;5033053;28;20423;-68
2021/06/30 11:56:06;;;;;;;13.25;9.00;;;21.80;99.90;;;;;;5033233;28;20026;-67
2021/06/30 11:58:46;;;;;;;10.85;9.38;;;21.90;99.90;;;;;;5033059;28;20496;-68
2021/06/30 12:01:19;;;;;;;13.45;9.75;;;21.90;99.90;;;;;;5031860;28;20219;-68
2021/06/30 12:03:46;;;;;;;14.32;9.90;;;21.80;99.90;;;;;;5032860;28;20026;-68
2021/06/30 12:06:23;;;;;;;13.00;9.55;;;21.80;99.90;;;;;;5033060;28;20492;-67
2021/06/30 12:09:05;;;;;;;12.77;10.02;;;21.90;99.90;;;;;;5032627;28;20057;-68
2021/06/30 12:11:33;;;;;;;12.68;9.13;;;21.90;99.90;;;;;;5032740;28;20036;-67
2021/06/30 12:14:20;;;;;;;12.02;9.32;;;21.90;99.90;;;;;;5032771;28;20034;-67
2021/06/30 12:16:58;;;;;;;11.82;8.23;;;21.90;99.90;;;;;;5031989;28;20545;-67
2021/06/30 12:19:38;;;;;;;12.55;10.50;;;21.90;99.90;;;;;;5032701;28;20104;-66
2021/06/30 12:22:27;;;;;;;11.98;9.88;;;21.90;99.90;;;;;;5032672;28;20021;-68
2021/06/30 12:25:03;;;;;;;12.88;8.50;;;22.00;99.90;;;;;;5029436;28;20052;-68
2021/06/30 12:27:48;;;;;;;10.05;8.27;;;22.00;99.90;;;;;;5032746;28;20037;-68
2021/06/30 12:30:28;;;;;;;12.18;10.10;;;22.10;99.90;;;;;;5030511;28;20029;-67
2021/06/30 12:33:01;;;;;;;11.13;8.82;;;22.10;99.90;;;;;;5032685;28;20021;-67
2021/06/30 12:35:31;;;;;;;16.77;11.55;;;22.10;99.90;;;;;;5032560;28;20035;-65
2021/06/30 12:38:06;;;;;;;12.85;10.07;;;22.10;99.90;;;;;;5032624;28;20386;-68